createdAt,value
2024-04-14T00:00:31.591Z,5.92
2024-04-14T00:01:32.479Z,6.08
2024-04-14T00:02:33.357Z,5.75
2024-04-14T00:03:34.338Z,5.92
2024-04-14T00:04:35.354Z,5.92
2024-04-14T00:05:36.336Z,5.88
2024-04-14T00:06:37.258Z,5.87
2024-04-14T00:07:38.137Z,6.30
2024-04-14T00:08:38.970Z,6.10
2024-04-14T00:09:39.843Z,6.45
2024-04-14T00:10:40.743Z,6.37
2024-04-14T00:11:41.649Z,5.78
2024-04-14T00:12:42.519Z,6.02
2024-04-14T00:13:43.366Z,6.02
2024-04-14T00:14:44.194Z,6.13
2024-04-14T00:15:45.106Z,6.15
2024-04-14T00:16:46.279Z,6.02
2024-04-14T00:17:47.199Z,5.95
2024-04-14T00:18:48.872Z,6.10
2024-04-14T00:19:52.569Z,6.03
2024-04-14T00:20:53.811Z,6.07
2024-04-14T00:21:54.737Z,6.27
2024-04-14T00:22:55.610Z,6.53
2024-04-14T00:23:56.594Z,6.08
2024-04-14T00:24:57.537Z,5.90
2024-04-14T00:25:58.530Z,6.03
2024-04-14T00:26:59.381Z,5.90
2024-04-14T00:28:00.250Z,6.12
2024-04-14T00:29:01.176Z,6.05
2024-04-14T00:30:02.781Z,5.93
2024-04-14T00:31:03.830Z,6.05
2024-04-14T00:32:04.824Z,6.30
2024-04-14T00:33:05.737Z,5.85
2024-04-14T00:34:09.983Z,6.02
2024-04-14T00:35:10.900Z,6.38
2024-04-14T00:36:12.223Z,6.70
2024-04-14T00:37:13.082Z,6.33
2024-04-14T00:38:13.956Z,6.73
2024-04-14T00:39:14.817Z,6.37
2024-04-14T00:40:15.653Z,5.78
2024-04-14T00:41:16.495Z,6.25
2024-04-14T00:42:17.350Z,6.28
2024-04-14T00:43:18.176Z,6.08
2024-04-14T00:44:19.040Z,6.28
2024-04-14T00:45:19.883Z,6.63
2024-04-14T00:46:20.755Z,6.70
2024-04-14T00:47:21.654Z,6.33
2024-04-14T00:48:22.745Z,6.13
2024-04-14T00:49:23.704Z,5.98
2024-04-14T00:50:24.577Z,6.08
2024-04-14T00:51:25.442Z,6.17
2024-04-14T00:52:26.295Z,6.52
2024-04-14T00:53:27.157Z,6.55
2024-04-14T00:54:28.606Z,6.45
2024-04-14T00:55:29.467Z,6.32
2024-04-14T00:56:30.295Z,6.03
2024-04-14T00:57:31.156Z,6.47
2024-04-14T00:58:32.007Z,6.62
2024-04-14T00:59:32.841Z,6.38
2024-04-14T01:00:33.760Z,6.12
2024-04-14T01:01:36.332Z,6.62
2024-04-14T01:02:37.274Z,6.35
2024-04-14T01:03:38.285Z,6.25
2024-04-14T01:04:39.364Z,6.35
2024-04-14T01:05:40.345Z,6.55
2024-04-14T01:06:41.233Z,6.30
2024-04-14T01:07:42.113Z,6.30
2024-04-14T01:08:42.961Z,5.88
2024-04-14T01:09:43.862Z,6.07
2024-04-14T01:10:44.743Z,5.98
2024-04-14T01:11:45.625Z,5.78
2024-04-14T01:12:46.498Z,5.95
2024-04-14T01:13:47.497Z,6.62
2024-04-14T01:14:48.328Z,6.25
2024-04-14T01:15:49.202Z,5.97
2024-04-14T01:16:50.061Z,6.38
2024-04-14T01:17:51.052Z,6.12
2024-04-14T01:18:52.021Z,6.03
2024-04-14T01:19:52.879Z,6.33
2024-04-14T01:20:53.731Z,6.45
2024-04-14T01:21:54.672Z,6.62
2024-04-14T01:22:55.607Z,6.33
2024-04-14T01:23:56.494Z,6.27
2024-04-14T01:25:15.185Z,6.43
2024-04-14T01:26:16.014Z,6.45
2024-04-14T01:27:16.856Z,6.43
2024-04-14T01:28:17.736Z,6.77
2024-04-14T01:29:18.570Z,6.63
2024-04-14T01:30:19.463Z,6.45
2024-04-14T01:31:20.297Z,6.18
2024-04-14T01:32:21.147Z,6.60
2024-04-14T01:33:22.069Z,6.92
2024-04-14T01:34:22.981Z,6.77
2024-04-14T01:35:23.820Z,6.58
2024-04-14T01:36:24.669Z,6.82
2024-04-14T01:37:25.534Z,6.60
2024-04-14T01:38:26.900Z,6.85
2024-04-14T01:39:27.952Z,6.47
2024-04-14T01:40:28.786Z,6.02
2024-04-14T01:41:29.612Z,6.50
2024-04-14T01:42:30.625Z,6.45
2024-04-14T01:43:31.494Z,5.95
2024-04-14T01:44:32.350Z,6.30
2024-04-14T01:45:33.247Z,6.42
2024-04-14T01:46:34.091Z,6.08
2024-04-14T01:47:35.109Z,6.33
2024-04-14T01:48:36.118Z,6.17
2024-04-14T01:49:37.071Z,6.08
2024-04-14T01:50:37.919Z,6.43
2024-04-14T01:51:38.776Z,6.27
2024-04-14T01:52:39.630Z,6.33
2024-04-14T01:53:40.473Z,6.03
2024-04-14T01:54:41.455Z,6.62
2024-04-14T01:55:47.963Z,6.57
2024-04-14T01:56:48.811Z,6.35
2024-04-14T01:57:49.672Z,5.98
2024-04-14T01:58:50.576Z,5.97
2024-04-14T01:59:51.414Z,6.22
2024-04-14T02:00:52.381Z,6.28
2024-04-14T02:01:53.294Z,6.45
2024-04-14T02:02:56.264Z,6.90
2024-04-14T02:03:57.335Z,7.45
2024-04-14T02:04:58.324Z,6.97
2024-04-14T02:05:59.429Z,6.93
2024-04-14T02:07:00.320Z,6.45
2024-04-14T02:08:01.186Z,6.10
2024-04-14T02:09:02.033Z,6.33
2024-04-14T02:10:03.195Z,6.75
2024-04-14T02:11:04.417Z,6.37
2024-04-14T02:12:05.558Z,5.95
2024-04-14T02:13:06.387Z,6.75
2024-04-14T02:14:07.250Z,6.38
2024-04-14T02:15:08.268Z,6.28
2024-04-14T02:16:09.194Z,6.85
2024-04-14T02:17:10.070Z,6.65
2024-04-14T02:18:11.020Z,6.20
2024-04-14T02:19:12.226Z,6.60
2024-04-14T02:20:13.560Z,6.85
2024-04-14T02:21:14.411Z,6.82
2024-04-14T02:22:15.289Z,6.72
2024-04-14T02:23:16.172Z,6.37
2024-04-14T02:24:17.047Z,6.60
2024-04-14T02:25:17.893Z,6.43
2024-04-14T02:26:19.667Z,6.63
2024-04-14T02:27:20.559Z,6.23
2024-04-14T02:28:21.420Z,6.47
2024-04-14T02:29:22.276Z,6.82
2024-04-14T02:30:23.151Z,6.42
2024-04-14T02:31:24.977Z,6.42
2024-04-14T02:32:25.868Z,6.27
2024-04-14T02:33:26.841Z,6.40
2024-04-14T02:34:27.706Z,6.12
2024-04-14T02:35:28.546Z,6.32
2024-04-14T02:36:29.443Z,6.25
2024-04-14T02:37:30.310Z,6.52
2024-04-14T02:38:31.158Z,6.10
2024-04-14T02:39:32.034Z,6.37
2024-04-14T02:40:32.891Z,5.98
2024-04-14T02:41:33.726Z,6.32
2024-04-14T02:42:35.057Z,6.02
2024-04-14T02:43:35.936Z,5.90
2024-04-14T02:44:36.822Z,6.10
2024-04-14T02:45:37.676Z,6.62
2024-04-14T02:46:38.754Z,6.50
2024-04-14T02:47:39.705Z,6.28
2024-04-14T02:48:47.230Z,6.23
2024-04-14T02:49:48.109Z,6.20
2024-04-14T02:50:49.258Z,6.62
2024-04-14T02:51:50.198Z,6.15
2024-04-14T02:52:51.052Z,6.12
2024-04-14T02:53:51.896Z,6.40
2024-04-14T02:54:54.156Z,6.65
2024-04-14T02:55:55.009Z,6.42
2024-04-14T02:56:55.856Z,6.22
2024-04-14T02:58:01.376Z,6.32
2024-04-14T02:59:03.066Z,6.40
2024-04-14T03:00:04.363Z,6.25
2024-04-14T03:01:05.447Z,6.45
2024-04-14T03:02:06.404Z,5.83
2024-04-14T03:03:07.562Z,6.35
2024-04-14T03:04:08.669Z,6.48
2024-04-14T03:05:09.699Z,6.30
2024-04-14T03:06:10.588Z,6.42
2024-04-14T03:07:11.416Z,6.15
2024-04-14T03:08:12.278Z,6.23
2024-04-14T03:09:13.114Z,6.53
2024-04-14T03:10:13.972Z,6.53
2024-04-14T03:11:14.851Z,6.62
2024-04-14T03:12:15.761Z,6.83
2024-04-14T03:13:16.602Z,6.33
2024-04-14T03:14:17.450Z,6.63
2024-04-14T03:15:18.352Z,6.38
2024-04-14T03:16:19.257Z,6.47
2024-04-14T03:17:21.188Z,6.77
2024-04-14T03:18:22.027Z,6.73
2024-04-14T03:19:22.888Z,6.80
2024-04-14T03:20:23.762Z,6.65
2024-04-14T03:21:24.902Z,6.25
2024-04-14T03:22:25.869Z,6.72
2024-04-14T03:23:26.840Z,6.03
2024-04-14T03:24:27.712Z,6.10
2024-04-14T03:25:28.722Z,6.08
2024-04-14T03:26:29.557Z,6.28
2024-04-14T03:27:30.412Z,6.82
2024-04-14T03:28:31.242Z,6.38
2024-04-14T03:29:32.088Z,6.22
2024-04-14T03:30:32.940Z,6.00
2024-04-14T03:31:33.888Z,6.22
2024-04-14T03:32:34.843Z,6.10
2024-04-14T03:33:35.711Z,6.22
2024-04-14T03:34:36.595Z,7.00
2024-04-14T03:35:37.438Z,6.83
2024-04-14T03:36:38.318Z,6.67
2024-04-14T03:37:42.142Z,6.58
2024-04-14T03:38:42.990Z,6.88
2024-04-14T03:39:43.838Z,6.88
2024-04-14T03:40:44.698Z,7.30
2024-04-14T03:41:45.602Z,6.95
2024-04-14T03:42:46.503Z,6.82
2024-04-14T03:43:47.385Z,6.48
2024-04-14T03:44:48.242Z,6.98
2024-04-14T03:45:49.143Z,6.68
2024-04-14T03:46:49.981Z,6.90
2024-04-14T03:47:53.743Z,6.72
2024-04-14T03:48:54.747Z,6.63
2024-04-14T03:49:55.633Z,6.90
2024-04-14T03:50:56.473Z,6.45
2024-04-14T03:51:57.332Z,6.45
2024-04-14T03:52:58.195Z,6.78
2024-04-14T03:53:59.051Z,7.35
2024-04-14T03:54:59.910Z,7.17
2024-04-14T03:56:00.811Z,6.93
2024-04-14T03:57:02.914Z,7.10
2024-04-14T03:58:03.926Z,6.93
2024-04-14T03:59:04.851Z,7.40
2024-04-14T04:00:06.684Z,7.25
2024-04-14T04:01:07.586Z,7.23
2024-04-14T04:02:08.491Z,7.20
2024-04-14T04:03:09.350Z,5.95
2024-04-14T04:04:10.293Z,6.30
2024-04-14T04:05:11.176Z,7.00
2024-04-14T04:06:12.051Z,6.87
2024-04-14T04:07:12.889Z,6.88
2024-04-14T04:08:13.723Z,6.63
2024-04-14T04:09:14.556Z,6.67
2024-04-14T04:10:15.463Z,6.32
2024-04-14T04:11:16.368Z,7.45
2024-04-14T04:12:17.221Z,7.18
2024-04-14T04:13:18.056Z,6.30
2024-04-14T04:14:18.895Z,7.42
2024-04-14T04:15:19.759Z,7.17
2024-04-14T04:16:20.597Z,6.97
2024-04-14T04:17:21.449Z,6.98
2024-04-14T04:18:23.476Z,6.70
2024-04-14T04:19:27.462Z,6.68
2024-04-14T04:20:29.099Z,6.53
2024-04-14T04:21:29.964Z,6.68
2024-04-14T04:22:30.796Z,6.60
2024-04-14T04:23:31.637Z,6.25
2024-04-14T04:24:32.819Z,6.92
2024-04-14T04:25:33.659Z,6.55
2024-04-14T04:26:34.563Z,6.60
2024-04-14T04:27:35.430Z,6.52
2024-04-14T04:28:36.408Z,6.68
2024-04-14T04:29:37.848Z,6.78
2024-04-14T04:30:38.724Z,6.90
2024-04-14T04:31:39.582Z,6.90
2024-04-14T04:32:40.765Z,6.93
2024-04-14T04:33:41.951Z,6.38
2024-04-14T04:34:44.010Z,6.43
2024-04-14T04:35:54.160Z,6.87
2024-04-14T04:36:55.141Z,7.07
2024-04-14T04:37:56.024Z,7.75
2024-04-14T04:39:02.775Z,7.45
2024-04-14T04:40:04.023Z,7.38
2024-04-14T04:41:04.908Z,7.50
2024-04-14T04:42:06.101Z,7.47
2024-04-14T04:43:06.954Z,7.35
2024-04-14T04:44:07.973Z,7.17
2024-04-14T04:45:09.366Z,7.15
2024-04-14T04:46:10.233Z,7.37
2024-04-14T04:47:11.121Z,6.38
2024-04-14T04:48:12.178Z,6.93
2024-04-14T04:49:13.124Z,7.17
2024-04-14T04:50:13.981Z,7.20
2024-04-14T04:51:14.863Z,7.58
2024-04-14T04:52:15.734Z,7.05
2024-04-14T04:53:16.640Z,7.00
2024-04-14T04:54:17.474Z,7.03
2024-04-14T04:55:18.336Z,7.33
2024-04-14T04:56:19.222Z,7.48
2024-04-14T04:57:20.087Z,7.07
2024-04-14T04:58:20.925Z,7.25
2024-04-14T04:59:22.246Z,7.10
2024-04-14T05:00:23.078Z,7.23
2024-04-14T05:01:24.096Z,7.22
2024-04-14T05:02:25.050Z,6.72
2024-04-14T05:03:30.981Z,7.60
2024-04-14T05:04:33.514Z,7.50
2024-04-14T05:05:34.450Z,7.68
2024-04-14T05:06:35.436Z,6.97
2024-04-14T05:07:36.273Z,6.88
2024-04-14T05:08:37.185Z,8.12
2024-04-14T05:09:38.077Z,7.97
2024-04-14T05:10:38.978Z,8.12
2024-04-14T05:11:39.835Z,8.53
2024-04-14T05:12:40.691Z,8.20
2024-04-14T05:13:41.576Z,8.68
2024-04-14T05:14:42.418Z,8.75
2024-04-14T05:15:43.311Z,8.37
2024-04-14T05:16:44.206Z,8.82
2024-04-14T05:17:45.103Z,9.20
2024-04-14T05:18:46.072Z,8.63
2024-04-14T05:19:48.983Z,8.57
2024-04-14T05:20:51.019Z,8.53
2024-04-14T05:21:51.902Z,8.82
2024-04-14T05:22:52.772Z,8.90
2024-04-14T05:23:53.603Z,9.20
2024-04-14T05:24:56.169Z,9.35
2024-04-14T05:25:59.742Z,8.85
2024-04-14T05:27:01.190Z,9.50
2024-04-14T05:28:02.284Z,9.53
2024-04-14T05:29:03.204Z,9.02
2024-04-14T05:30:04.573Z,8.77
2024-04-14T05:31:05.443Z,9.77
2024-04-14T05:32:06.393Z,9.20
2024-04-14T05:33:07.270Z,8.80
2024-04-14T05:34:08.326Z,8.10
2024-04-14T05:35:09.251Z,8.75
2024-04-14T05:36:10.112Z,8.23
2024-04-14T05:37:10.961Z,8.65
2024-04-14T05:38:11.796Z,8.38
2024-04-14T05:39:12.663Z,8.82
2024-04-14T05:40:13.489Z,8.87
2024-04-14T05:41:14.662Z,9.10
2024-04-14T05:42:15.515Z,8.55
2024-04-14T05:43:16.342Z,8.37
2024-04-14T05:44:17.326Z,8.98
2024-04-14T05:45:24.311Z,9.62
2024-04-14T05:46:25.255Z,9.27
2024-04-14T05:47:26.161Z,9.08
2024-04-14T05:48:27.514Z,8.47
2024-04-14T05:49:28.450Z,9.33
2024-04-14T05:50:29.351Z,8.87
2024-04-14T05:51:30.216Z,8.85
2024-04-14T05:52:31.056Z,9.15
2024-04-14T05:53:31.909Z,9.03
2024-04-14T05:54:32.764Z,9.67
2024-04-14T05:55:33.607Z,9.73
2024-04-14T05:56:34.440Z,9.08
2024-04-14T05:57:35.333Z,9.33
2024-04-14T05:58:36.430Z,9.33
2024-04-14T05:59:37.253Z,8.85
2024-04-14T06:00:38.470Z,8.53
2024-04-14T06:01:39.641Z,9.10
2024-04-14T06:02:40.781Z,10.12
2024-04-14T06:03:41.676Z,10.33
2024-04-14T06:04:42.570Z,10.83
2024-04-14T06:05:43.534Z,10.92
2024-04-14T06:06:44.406Z,10.18
2024-04-14T06:07:47.730Z,9.93
2024-04-14T06:08:48.613Z,11.77
2024-04-14T06:09:49.475Z,10.33
2024-04-14T06:10:50.311Z,10.92
2024-04-14T06:11:51.187Z,10.80
2024-04-14T06:12:52.050Z,10.00
2024-04-14T06:13:52.936Z,10.88
2024-04-14T06:14:53.771Z,10.23
2024-04-14T06:15:54.762Z,10.73
2024-04-14T06:16:55.709Z,9.87
2024-04-14T06:17:56.727Z,9.58
2024-04-14T06:18:57.753Z,9.93
2024-04-14T06:19:58.632Z,10.77
2024-04-14T06:20:59.484Z,10.02
2024-04-14T06:22:00.381Z,10.25
2024-04-14T06:23:01.410Z,10.65
2024-04-14T06:24:02.247Z,9.63
2024-04-14T06:25:03.260Z,10.72
2024-04-14T06:26:04.257Z,10.53
2024-04-14T06:27:05.116Z,10.75
2024-04-14T06:28:06.277Z,10.02
2024-04-14T06:29:07.153Z,10.40
2024-04-14T06:30:08.365Z,9.78
2024-04-14T06:31:09.275Z,10.23
2024-04-14T06:32:10.175Z,9.83
2024-04-14T06:33:11.184Z,10.33
2024-04-14T06:34:12.135Z,9.97
2024-04-14T06:35:13.077Z,10.02
2024-04-14T06:36:13.924Z,10.35
2024-04-14T06:37:15.065Z,10.12
2024-04-14T06:38:17.026Z,9.65
2024-04-14T06:39:17.876Z,10.27
2024-04-14T06:40:18.787Z,10.65
2024-04-14T06:41:19.629Z,10.43
2024-04-14T06:42:20.477Z,9.38
2024-04-14T06:43:21.334Z,8.65
2024-04-14T06:44:22.178Z,10.02
2024-04-14T06:45:23.013Z,9.28
2024-04-14T06:46:23.857Z,9.25
2024-04-14T06:47:24.756Z,8.72
2024-04-14T06:48:25.688Z,9.45
2024-04-14T06:49:26.588Z,10.15
2024-04-14T06:50:27.727Z,9.93
2024-04-14T06:51:28.592Z,9.57
2024-04-14T06:52:29.510Z,9.38
2024-04-14T06:53:30.398Z,10.28
2024-04-14T06:54:31.444Z,10.27
2024-04-14T06:55:35.604Z,9.97
2024-04-14T06:56:37.223Z,10.30
2024-04-14T06:57:38.095Z,9.87
2024-04-14T06:58:38.940Z,9.98
2024-04-14T06:59:39.769Z,8.97
2024-04-14T07:00:43.785Z,9.10
2024-04-14T07:01:45.211Z,8.35
2024-04-14T07:02:46.182Z,8.32
2024-04-14T07:03:47.124Z,8.93
2024-04-14T07:04:48.083Z,10.13
2024-04-14T07:05:48.933Z,8.58
2024-04-14T07:06:49.827Z,7.93
2024-04-14T07:07:50.704Z,8.73
2024-04-14T07:08:51.557Z,8.93
2024-04-14T07:09:52.468Z,9.60
2024-04-14T07:10:53.318Z,8.67
2024-04-14T07:11:54.244Z,9.05
2024-04-14T07:12:55.186Z,9.03
2024-04-14T07:13:56.053Z,9.07
2024-04-14T07:14:56.899Z,8.55
2024-04-14T07:15:57.789Z,8.08
2024-04-14T07:16:58.669Z,8.45
2024-04-14T07:17:59.709Z,8.07
2024-04-14T07:19:00.694Z,7.57
2024-04-14T07:20:01.578Z,8.28
2024-04-14T07:21:03.173Z,9.13
2024-04-14T07:22:04.033Z,8.35
2024-04-14T07:23:04.903Z,7.27
2024-04-14T07:24:05.893Z,7.42
2024-04-14T07:25:06.803Z,7.60
2024-04-14T07:26:08.342Z,7.85
2024-04-14T07:27:09.289Z,8.12
2024-04-14T07:28:10.277Z,7.90
2024-04-14T07:29:11.165Z,7.92
2024-04-14T07:30:12.025Z,7.67
2024-04-14T07:31:12.868Z,7.40
2024-04-14T07:32:13.732Z,7.10
2024-04-14T07:33:15.718Z,6.93
2024-04-14T07:34:16.649Z,7.83
2024-04-14T07:35:17.545Z,6.70
2024-04-14T07:36:18.375Z,7.00
2024-04-14T07:37:19.244Z,7.32
2024-04-14T07:38:20.073Z,7.27
2024-04-14T07:39:20.988Z,7.27
2024-04-14T07:40:21.818Z,6.88
2024-04-14T07:41:22.657Z,6.60
2024-04-14T07:42:23.491Z,6.57
2024-04-14T07:43:24.388Z,6.90
2024-04-14T07:44:25.230Z,6.68
2024-04-14T07:45:26.133Z,6.47
2024-04-14T07:46:27.803Z,6.65
2024-04-14T07:47:28.717Z,6.40
2024-04-14T07:48:29.735Z,6.20
2024-04-14T07:49:30.659Z,6.33
2024-04-14T07:50:31.504Z,5.85
2024-04-14T07:51:32.385Z,5.88
2024-04-14T07:52:33.294Z,5.72
2024-04-14T07:53:34.123Z,5.92
2024-04-14T07:54:38.410Z,5.80
2024-04-14T07:55:39.807Z,5.78
2024-04-14T07:56:40.693Z,5.77
2024-04-14T07:57:41.615Z,5.70
2024-04-14T07:58:42.447Z,6.17
2024-04-14T07:59:46.139Z,6.03
2024-04-14T08:00:47.380Z,6.57
2024-04-14T08:01:48.416Z,6.18
2024-04-14T08:02:49.266Z,6.00
2024-04-14T08:03:56.372Z,5.77
2024-04-14T08:04:58.784Z,5.83
2024-04-14T08:05:59.729Z,6.25
2024-04-14T08:07:00.719Z,6.12
2024-04-14T08:08:01.625Z,5.72
2024-04-14T08:09:02.562Z,5.87
2024-04-14T08:10:03.683Z,5.65
2024-04-14T08:11:07.343Z,5.60
2024-04-14T08:12:10.863Z,5.80
2024-04-14T08:13:13.670Z,5.32
2024-04-14T08:14:14.514Z,5.55
2024-04-14T08:15:15.410Z,5.78
2024-04-14T08:16:16.407Z,5.37
2024-04-14T08:17:17.332Z,5.57
2024-04-14T08:18:23.048Z,6.07
2024-04-14T08:19:23.884Z,5.97
2024-04-14T08:20:24.787Z,5.42
2024-04-14T08:21:25.650Z,5.37
2024-04-14T08:22:26.484Z,5.82
2024-04-14T08:23:27.326Z,5.45
2024-04-14T08:24:28.230Z,5.40
2024-04-14T08:25:29.098Z,5.53
2024-04-14T08:26:29.930Z,5.12
2024-04-14T08:27:30.853Z,5.32
2024-04-14T08:28:31.821Z,5.27
2024-04-14T08:29:32.694Z,5.48
2024-04-14T08:30:33.538Z,5.20
2024-04-14T08:31:34.383Z,5.53
2024-04-14T08:32:35.349Z,5.40
2024-04-14T08:33:36.273Z,5.52
2024-04-14T08:34:37.264Z,5.05
2024-04-14T08:35:38.208Z,5.10
2024-04-14T08:36:39.111Z,5.02
2024-04-14T08:37:39.964Z,5.03
2024-04-14T08:38:40.818Z,5.15
2024-04-14T08:39:41.656Z,4.92
2024-04-14T08:40:51.131Z,4.77
2024-04-14T08:41:51.995Z,5.02
2024-04-14T08:42:52.851Z,4.82
2024-04-14T08:43:57.974Z,4.30
2024-04-14T08:44:58.861Z,4.52
2024-04-14T08:45:59.843Z,4.93
2024-04-14T08:47:00.838Z,4.70
2024-04-14T08:48:02.413Z,4.82
2024-04-14T08:49:03.269Z,4.30
2024-04-14T08:50:04.554Z,4.63
2024-04-14T08:51:05.411Z,4.65
2024-04-14T08:52:06.379Z,4.38
2024-04-14T08:53:07.443Z,4.38
2024-04-14T08:54:08.270Z,4.52
2024-04-14T08:55:09.464Z,4.28
2024-04-14T08:56:10.866Z,4.72
2024-04-14T08:57:13.860Z,4.53
2024-04-14T08:58:15.442Z,4.43
2024-04-14T08:59:16.278Z,4.42
2024-04-14T09:00:18.854Z,4.37
2024-04-14T09:01:19.732Z,4.43
2024-04-14T09:02:20.697Z,4.50
2024-04-14T09:03:22.506Z,4.33
2024-04-14T09:04:23.423Z,4.33
2024-04-14T09:05:25.013Z,4.40
2024-04-14T09:06:26.648Z,4.42
2024-04-14T09:07:28.353Z,4.67
2024-04-14T09:08:29.215Z,4.53
2024-04-14T09:09:30.070Z,4.25
2024-04-14T09:10:30.964Z,4.13
2024-04-14T09:11:31.811Z,4.32
2024-04-14T09:12:33.648Z,4.18
2024-04-14T09:13:34.513Z,4.23
2024-04-14T09:14:35.345Z,4.23
2024-04-14T09:15:41.006Z,4.30
2024-04-14T09:16:42.013Z,4.23
2024-04-14T09:17:43.027Z,4.52
2024-04-14T09:18:43.942Z,4.33
2024-04-14T09:19:44.826Z,4.38
2024-04-14T09:20:45.690Z,4.07
2024-04-14T09:21:46.725Z,3.97
2024-04-14T09:22:48.166Z,4.27
2024-04-14T09:23:49.346Z,4.17
2024-04-14T09:24:52.898Z,3.93
2024-04-14T09:25:53.901Z,4.38
2024-04-14T09:27:01.111Z,4.23
2024-04-14T09:28:03.427Z,4.40
2024-04-14T09:29:04.690Z,4.38
2024-04-14T09:30:18.417Z,4.23
2024-04-14T09:31:19.333Z,4.22
2024-04-14T09:32:20.669Z,4.10
2024-04-14T09:33:21.559Z,4.35
2024-04-14T09:34:22.435Z,4.15
2024-04-14T09:35:23.330Z,4.32
2024-04-14T09:36:24.388Z,4.07
2024-04-14T09:37:25.229Z,4.48
2024-04-14T09:38:26.080Z,4.13
2024-04-14T09:39:27.742Z,4.35
2024-04-14T09:40:29.682Z,4.20
2024-04-14T09:41:30.529Z,4.28
2024-04-14T09:42:32.146Z,4.83
2024-04-14T09:43:33.036Z,4.48
2024-04-14T09:44:34.489Z,4.57
2024-04-14T09:45:35.398Z,4.23
2024-04-14T09:46:36.892Z,4.23
2024-04-14T09:47:40.649Z,4.28
2024-04-14T09:48:42.239Z,4.25
2024-04-14T09:49:43.829Z,3.95
2024-04-14T09:50:44.666Z,4.28
2024-04-14T09:51:45.576Z,4.20
2024-04-14T09:52:48.763Z,4.18
2024-04-14T09:53:49.617Z,3.93
2024-04-14T09:54:53.258Z,3.98
2024-04-14T09:55:54.135Z,3.98
2024-04-14T09:56:54.970Z,4.43
2024-04-14T09:57:55.839Z,4.42
2024-04-14T09:58:56.709Z,3.95
2024-04-14T09:59:57.540Z,4.10
2024-04-14T10:01:00.017Z,4.08
2024-04-14T10:02:03.549Z,4.10
2024-04-14T10:03:06.579Z,4.08
2024-04-14T10:04:07.570Z,4.20
2024-04-14T10:05:09.692Z,4.38
2024-04-14T10:06:10.532Z,4.12
2024-04-14T10:07:12.389Z,3.90
2024-04-14T10:08:14.125Z,3.85
2024-04-14T10:09:15.961Z,4.00
2024-04-14T10:10:16.928Z,4.22
2024-04-14T10:11:18.115Z,4.32
2024-04-14T10:12:19.351Z,4.05
2024-04-14T10:13:20.184Z,3.95
2024-04-14T10:14:24.934Z,4.13
2024-04-14T10:15:25.779Z,4.25
2024-04-14T10:16:26.667Z,4.25
2024-04-14T10:17:28.548Z,3.88
2024-04-14T10:18:34.146Z,4.07
2024-04-14T10:19:35.026Z,4.25
2024-04-14T10:20:46.585Z,3.83
2024-04-14T10:21:59.225Z,4.00
2024-04-14T10:23:01.962Z,4.33
2024-04-14T10:24:04.286Z,4.38
2024-04-14T10:25:05.369Z,4.17
2024-04-14T10:26:15.865Z,3.78
2024-04-14T10:27:16.819Z,4.35
2024-04-14T10:28:23.367Z,3.53
2024-04-14T10:29:24.538Z,3.43
2024-04-14T10:30:25.405Z,3.65
2024-04-14T10:31:29.455Z,3.38
2024-04-14T10:32:30.340Z,3.92
2024-04-14T10:33:31.726Z,4.02
2024-04-14T10:34:35.384Z,3.77
2024-04-14T10:35:36.340Z,3.68
2024-04-14T10:36:40.530Z,3.55
2024-04-14T10:37:41.391Z,3.27
2024-04-14T10:38:46.249Z,3.27
2024-04-14T10:39:50.501Z,3.33
2024-04-14T10:40:51.752Z,3.28
2024-04-14T10:41:52.593Z,3.23
2024-04-14T10:42:53.510Z,3.22
2024-04-14T10:43:54.436Z,3.30
2024-04-14T10:44:55.311Z,3.15
2024-04-14T10:46:00.741Z,3.17
2024-04-14T10:47:01.766Z,3.12
2024-04-14T10:48:02.761Z,3.10
2024-04-14T10:49:03.736Z,2.97
2024-04-14T10:50:04.837Z,3.03
2024-04-14T10:51:05.674Z,2.88
2024-04-14T10:52:06.580Z,2.85
2024-04-14T10:53:08.174Z,2.80
2024-04-14T10:54:09.022Z,2.83
2024-04-14T10:55:09.952Z,2.60
2024-04-14T10:56:11.599Z,2.78
2024-04-14T10:57:13.761Z,2.50
2024-04-14T10:58:14.601Z,2.85
2024-04-14T10:59:15.463Z,2.90
2024-04-14T11:00:16.393Z,2.97
2024-04-14T11:01:17.344Z,2.72
2024-04-14T11:02:18.262Z,2.88
2024-04-14T11:03:19.201Z,2.67
2024-04-14T11:04:20.144Z,3.12
2024-04-14T11:05:22.204Z,2.93
2024-04-14T11:06:23.066Z,3.30
2024-04-14T11:07:23.902Z,2.92
2024-04-14T11:08:24.751Z,3.03
2024-04-14T11:09:25.579Z,2.93
2024-04-14T11:10:26.789Z,2.95
2024-04-14T11:11:27.695Z,3.18
2024-04-14T11:12:28.595Z,2.77
2024-04-14T11:13:29.487Z,2.62
2024-04-14T11:14:30.317Z,2.77
2024-04-14T11:15:31.182Z,2.55
2024-04-14T11:16:32.150Z,2.72
2024-04-14T11:17:33.515Z,2.82
2024-04-14T11:18:35.260Z,3.30
2024-04-14T11:19:36.543Z,3.28
2024-04-14T11:20:37.420Z,3.00
2024-04-14T11:21:38.323Z,2.63
2024-04-14T11:22:39.187Z,3.15
2024-04-14T11:23:40.039Z,3.10
2024-04-14T11:24:40.910Z,3.10
2024-04-14T11:25:41.748Z,2.80
2024-04-14T11:26:42.640Z,2.68
2024-04-14T11:27:43.679Z,2.82
2024-04-14T11:28:45.332Z,2.65
2024-04-14T11:29:46.602Z,2.88
2024-04-14T11:30:47.527Z,2.95
2024-04-14T11:31:48.464Z,2.72
2024-04-14T11:32:49.363Z,2.65
2024-04-14T11:33:53.750Z,2.68
2024-04-14T11:34:59.423Z,2.77
2024-04-14T11:36:00.364Z,2.95
2024-04-14T11:37:01.377Z,3.03
2024-04-14T11:38:02.500Z,2.87
2024-04-14T11:39:03.697Z,2.90
2024-04-14T11:40:10.296Z,2.85
2024-04-14T11:41:12.930Z,2.98
2024-04-14T11:42:13.784Z,2.87
2024-04-14T11:43:14.675Z,2.97
2024-04-14T11:44:15.544Z,2.68
2024-04-14T11:45:16.588Z,2.97
2024-04-14T11:46:18.363Z,2.67
2024-04-14T11:47:19.738Z,2.60
2024-04-14T11:48:24.353Z,2.42
2024-04-14T11:49:25.186Z,2.48
2024-04-14T11:50:26.029Z,2.70
2024-04-14T11:51:26.858Z,2.80
2024-04-14T11:52:28.442Z,2.70
2024-04-14T11:53:29.280Z,2.75
2024-04-14T11:54:30.129Z,2.82
2024-04-14T11:55:30.996Z,2.67
2024-04-14T11:56:31.829Z,2.68
2024-04-14T11:57:33.161Z,2.47
2024-04-14T11:58:34.034Z,2.63
2024-04-14T11:59:34.882Z,2.78
2024-04-14T12:00:35.890Z,2.82
2024-04-14T12:01:36.871Z,2.50
2024-04-14T12:02:37.794Z,2.53
2024-04-14T12:03:38.686Z,2.67
2024-04-14T12:04:39.648Z,2.62
2024-04-14T12:05:40.542Z,2.73
2024-04-14T12:06:41.500Z,2.68
2024-04-14T12:07:42.346Z,2.50
2024-04-14T12:08:43.198Z,2.45
2024-04-14T12:09:44.722Z,2.72
2024-04-14T12:10:45.589Z,2.35
2024-04-14T12:11:49.450Z,2.43
2024-04-14T12:12:50.493Z,2.57
2024-04-14T12:13:51.356Z,2.50
2024-04-14T12:14:52.249Z,2.65
2024-04-14T12:15:53.138Z,2.48
2024-04-14T12:16:56.756Z,2.72
2024-04-14T12:17:57.809Z,2.68
2024-04-14T12:18:58.750Z,2.67
2024-04-14T12:19:59.596Z,2.42
2024-04-14T12:21:00.448Z,2.60
2024-04-14T12:22:01.315Z,2.47
2024-04-14T12:23:02.199Z,2.62
2024-04-14T12:24:05.650Z,2.67
2024-04-14T12:25:07.656Z,2.53
2024-04-14T12:26:08.492Z,2.50
2024-04-14T12:27:09.318Z,2.48
2024-04-14T12:28:10.229Z,2.43
2024-04-14T12:29:11.136Z,2.58
2024-04-14T12:30:12.014Z,2.62
2024-04-14T12:31:12.918Z,2.75
2024-04-14T12:32:13.987Z,2.62
2024-04-14T12:33:14.870Z,2.42
2024-04-14T12:34:16.189Z,2.43
2024-04-14T12:35:17.103Z,2.57
2024-04-14T12:36:17.944Z,2.78
2024-04-14T12:37:18.778Z,2.82
2024-04-14T12:38:19.630Z,2.67
2024-04-14T12:39:27.335Z,2.62
2024-04-14T12:40:31.273Z,2.87
2024-04-14T12:41:32.135Z,2.82
2024-04-14T12:42:33.001Z,2.75
2024-04-14T12:43:33.937Z,2.85
2024-04-14T12:44:34.772Z,2.83
2024-04-14T12:45:38.108Z,2.97
2024-04-14T12:46:38.983Z,2.77
2024-04-14T12:47:39.921Z,3.07
2024-04-14T12:48:43.608Z,2.68
2024-04-14T12:49:44.510Z,2.90
2024-04-14T12:50:48.525Z,3.05
2024-04-14T12:51:49.432Z,3.25
2024-04-14T12:52:50.312Z,3.10
2024-04-14T12:53:51.159Z,2.87
2024-04-14T12:54:52.047Z,2.90
2024-04-14T12:55:52.884Z,3.17
2024-04-14T12:56:53.747Z,3.25
2024-04-14T12:57:54.631Z,3.03
2024-04-14T12:58:55.501Z,3.10
2024-04-14T12:59:56.335Z,2.85
2024-04-14T13:00:57.321Z,2.98
2024-04-14T13:01:58.326Z,3.00
2024-04-14T13:02:59.264Z,3.02
2024-04-14T13:04:00.231Z,3.03
2024-04-14T13:05:01.160Z,3.03
2024-04-14T13:06:02.573Z,2.82
2024-04-14T13:07:03.916Z,3.02
2024-04-14T13:08:04.912Z,3.08
2024-04-14T13:09:05.748Z,2.85
2024-04-14T13:10:06.963Z,3.00
2024-04-14T13:11:08.001Z,2.85
2024-04-14T13:12:11.063Z,3.20
2024-04-14T13:13:12.179Z,3.28
2024-04-14T13:14:13.085Z,3.17
2024-04-14T13:15:13.948Z,3.07
2024-04-14T13:16:15.008Z,2.97
2024-04-14T13:17:15.982Z,3.02
2024-04-14T13:18:16.812Z,3.13
2024-04-14T13:19:17.655Z,2.95
2024-04-14T13:20:19.180Z,3.05
2024-04-14T13:21:20.090Z,3.35
2024-04-14T13:22:20.928Z,2.95
2024-04-14T13:23:21.767Z,2.83
2024-04-14T13:24:22.603Z,3.02
2024-04-14T13:25:23.453Z,3.22
2024-04-14T13:26:25.701Z,3.23
2024-04-14T13:27:26.727Z,3.18
2024-04-14T13:28:30.672Z,3.08
2024-04-14T13:29:33.178Z,3.02
2024-04-14T13:30:34.206Z,3.50
2024-04-14T13:31:35.109Z,3.52
2024-04-14T13:32:36.081Z,3.33
2024-04-14T13:33:37.222Z,3.50
2024-04-14T13:34:38.258Z,2.87
2024-04-14T13:35:41.628Z,3.10